Time;durP1;ratioP1;P1;durP2;ratioP2;P2;SDS_P1;SDS_P2;PMS_P1;PMS_P2;Temp;Humidity;BMP_temperature;BMP_pressure;BME280_temperature;BME280_humidity;BME280_pressure;Samples;Min_cycle;Max_cycle;Signal;HPM_P1;HPM_P2
2022/10/18 00:02:21;;;;;;;0.10;0.10;;;;;;;7.59;84.49;100356.44;5104049;28;20469;-64
2022/10/18 00:04:47;;;;;;;0.10;0.10;;;;;;;7.59;84.42;100358.34;5105066;28;20502;-64
2022/10/18 00:07:15;;;;;;;0.10;0.10;;;;;;;7.59;84.38;100352.88;5099216;28;20036;-65
2022/10/18 00:09:41;;;;;;;0.10;0.10;;;;;;;7.61;84.33;100351.59;5092845;28;20623;-67
2022/10/18 00:12:07;;;;;;;0.10;0.10;;;;;;;7.65;83.97;100339.16;5105182;28;20158;-67
2022/10/18 00:14:33;;;;;;;0.10;0.10;;;;;;;7.65;83.77;100330.16;5108265;28;20104;-64
2022/10/18 00:16:59;;;;;;;0.10;0.10;;;;;;;7.66;83.45;100316.28;5104932;28;20039;-63
2022/10/18 00:19:25;;;;;;;0.10;0.10;;;;;;;7.66;83.43;100320.94;5103533;28;20077;-64
2022/10/18 00:21:51;;;;;;;0.20;0.20;;;;;;;7.68;83.41;100331.56;5071157;28;20058;-65
2022/10/18 00:24:18;;;;;;;0.10;0.10;;;;;;;7.67;83.24;100338.91;5086022;28;20507;-64
2022/10/18 00:26:44;;;;;;;0.10;0.10;;;;;;;7.70;83.20;100318.53;5086101;28;20113;-64
2022/10/18 00:29:13;;;;;;;0.10;0.10;;;;;;;7.70;83.05;100313.94;5085483;28;20044;-64
2022/10/18 00:31:40;;;;;;;0.32;0.20;;;;;;;7.73;83.00;100318.88;5105119;28;20130;-64
2022/10/18 00:34:10;;;;;;;0.10;0.10;;;;;;;7.75;82.79;100305.03;5106608;28;20043;-65
2022/10/18 00:36:36;;;;;;;0.10;0.10;;;;;;;7.78;82.56;100307.25;5105667;28;20089;-66
2022/10/18 00:39:06;;;;;;;0.10;0.10;;;;;;;7.82;82.38;100307.63;5105757;28;20047;-65
2022/10/18 00:41:36;;;;;;;0.10;0.10;;;;;;;7.82;82.07;100313.06;5103393;28;20139;-65
2022/10/18 00:44:04;;;;;;;0.10;0.10;;;;;;;7.85;81.71;100293.50;5103424;28;20043;-65
2022/10/18 00:46:32;;;;;;;0.10;0.10;;;;;;;7.84;81.65;100295.38;5105240;28;20401;-65
2022/10/18 00:48:58;;;;;;;;;;;;;;;7.85;81.67;100290.78;5105436;28;20584;-65
2022/10/18 00:51:27;;;;;;;0.10;0.10;;;;;;;7.83;81.55;100291.00;5105777;28;19923;-64
2022/10/18 00:53:53;;;;;;;0.10;0.10;;;;;;;7.83;81.71;100279.31;5085236;28;20660;-64
2022/10/18 00:56:19;;;;;;;0.10;0.10;;;;;;;7.79;81.98;100282.50;5106386;28;20436;-63
2022/10/18 00:58:48;;;;;;;0.10;0.10;;;;;;;7.74;82.24;100287.88;5104445;27;20051;-63
2022/10/18 01:01:14;;;;;;;0.10;0.10;;;;;;;7.66;82.63;100266.50;5105929;28;20434;-64
2022/10/18 01:03:40;;;;;;;0.10;0.10;;;;;;;7.61;82.98;100283.56;5088982;28;20039;-63
2022/10/18 01:06:07;;;;;;;0.20;0.20;;;;;;;7.56;83.47;100269.00;5096760;28;20051;-63
2022/10/18 01:08:45;;;;;;;0.10;0.10;;;;;;;7.49;83.83;100264.56;5109020;28;20070;-64
2022/10/18 01:11:31;;;;;;;0.10;0.10;;;;;;;7.44;83.99;100275.31;5104428;28;20212;-64
2022/10/18 01:14:12;;;;;;;0.13;0.13;;;;;;;7.42;84.09;100280.19;5103791;28;20406;-63
2022/10/18 01:16:45;;;;;;;0.20;0.20;;;;;;;7.35;84.20;100277.59;5108358;28;20054;-63
2022/10/18 01:19:32;;;;;;;0.10;0.10;;;;;;;7.30;84.44;100268.50;5107947;28;20048;-63
2022/10/18 01:22:04;;;;;;;0.10;0.10;;;;;;;7.26;84.63;100286.38;5108655;28;20043;-63
2022/10/18 01:24:47;;;;;;;0.10;0.10;;;;;;;7.25;84.55;100274.66;5102856;28;20067;-63
2022/10/18 01:27:41;;;;;;;0.10;0.10;;;;;;;7.24;84.60;100273.84;5105580;28;20158;-63
2022/10/18 01:30:34;;;;;;;0.10;0.10;;;;;;;7.27;84.71;100269.00;5104892;27;20043;-67
2022/10/18 01:33:04;;;;;;;0.10;0.10;;;;;;;7.25;84.50;100271.94;5103040;28;20055;-63
2022/10/18 01:35:36;;;;;;;0.10;0.10;;;;;;;7.28;84.26;100276.09;5104504;28;20044;-63
2022/10/18 01:38:08;;;;;;;0.20;0.20;;;;;;;7.26;84.29;100268.19;5106545;28;20511;-64
2022/10/18 01:40:35;;;;;;;0.38;0.20;;;;;;;7.24;84.20;100254.81;5087974;28;20044;-63
2022/10/18 01:43:02;;;;;;;0.10;0.10;;;;;;;7.27;84.04;100258.97;5105720;28;20035;-64
2022/10/18 01:45:31;;;;;;;0.10;0.10;;;;;;;7.32;83.74;100266.38;5104054;28;20047;-60
2022/10/18 01:47:59;;;;;;;0.10;0.10;;;;;;;7.35;83.50;100255.84;5105948;28;20133;-63
2022/10/18 01:50:30;;;;;;;0.10;0.10;;;;;;;7.40;83.37;100259.72;5105514;28;20044;-64
2022/10/18 01:52:56;;;;;;;0.10;0.10;;;;;;;7.43;82.88;100251.91;5102244;28;20077;-63
2022/10/18 01:55:30;;;;;;;0.20;0.20;;;;;;;7.43;82.68;100251.09;5105103;28;20510;-64
2022/10/18 01:58:02;;;;;;;0.17;0.17;;;;;;;7.43;82.76;100245.66;5104036;28;20040;-63
2022/10/18 02:00:36;;;;;;;0.10;0.10;;;;;;;7.43;82.78;100241.03;5108250;28;20569;-63
2022/10/18 02:03:08;;;;;;;0.10;0.10;;;;;;;7.43;82.81;100235.59;5105634;28;20043;-63
2022/10/18 02:05:42;;;;;;;0.10;0.10;;;;;;;7.44;82.76;100228.25;5096291;28;20043;-62
2022/10/18 02:08:16;;;;;;;0.10;0.10;;;;;;;7.44;82.64;100231.78;5088768;28;20074;-63
2022/10/18 02:10:47;;;;;;;0.10;0.10;;;;;;;7.48;82.51;100229.41;5103942;28;20044;-63
2022/10/18 02:13:16;;;;;;;0.10;0.10;;;;;;;7.46;82.51;100231.56;5104122;28;20048;-63
2022/10/18 02:16:09;;;;;;;0.10;0.10;;;;;;;7.45;82.55;100227.19;5088401;28;20399;-64
2022/10/18 02:18:39;;;;;;;0.10;0.10;;;;;;;7.43;82.57;100223.88;5100678;28;20043;-63
2022/10/18 02:21:09;;;;;;;0.10;0.10;;;;;;;7.43;82.69;100226.63;5103136;28;20101;-63
2022/10/18 02:23:37;;;;;;;0.10;0.10;;;;;;;7.41;82.62;100217.84;5104844;28;20048;-64
2022/10/18 02:26:03;;;;;;;;;;;;;;;7.41;82.65;100231.44;5102013;28;20069;-66
2022/10/18 02:28:29;;;;;;;0.10;0.10;;;;;;;7.42;82.47;100217.59;5100745;28;19923;-63
2022/10/18 02:31:02;;;;;;;0.10;0.10;;;;;;;7.36;82.31;100215.88;5104589;28;20040;-63
2022/10/18 02:33:36;;;;;;;0.10;0.10;;;;;;;7.40;82.56;100208.88;5104805;28;20071;-63
2022/10/18 02:36:09;;;;;;;0.10;0.10;;;;;;;7.39;82.77;100207.22;5085488;28;20044;-63
2022/10/18 02:38:37;;;;;;;0.10;0.10;;;;;;;7.42;82.54;100214.06;5103584;28;20042;-63
2022/10/18 02:41:03;;;;;;;0.10;0.10;;;;;;;7.42;82.51;100195.84;5084747;28;20434;-64
2022/10/18 02:43:29;;;;;;;0.10;0.10;;;;;;;7.43;82.42;100204.84;5106058;28;20040;-63
2022/10/18 02:45:55;;;;;;;0.10;0.10;;;;;;;7.43;82.46;100196.69;5104072;28;20043;-64
2022/10/18 02:48:21;;;;;;;0.10;0.10;;;;;;;7.40;82.50;100184.38;5099806;28;20071;-63
2022/10/18 02:50:48;;;;;;;0.10;0.10;;;;;;;7.40;82.49;100186.25;5102473;28;20043;-63
2022/10/18 02:53:14;;;;;;;0.10;0.10;;;;;;;7.40;82.63;100183.53;5101952;28;20050;-64
2022/10/18 02:55:40;;;;;;;0.10;0.10;;;;;;;7.40;82.58;100192.53;5104345;28;20040;-62
2022/10/18 02:58:06;;;;;;;0.10;0.10;;;;;;;7.38;82.29;100192.78;5104105;28;20047;-62
2022/10/18 03:00:32;;;;;;;0.20;0.20;;;;;;;7.35;82.32;100173.41;5102428;28;20464;-63
2022/10/18 03:02:58;;;;;;;0.10;0.10;;;;;;;7.31;82.33;100166.78;5104640;28;20055;-63
2022/10/18 03:05:24;;;;;;;0.10;0.10;;;;;;;7.30;82.32;100167.88;5104079;28;20047;-64
2022/10/18 03:07:51;;;;;;;0.10;0.10;;;;;;;7.26;82.39;100159.38;5102799;28;20040;-63
2022/10/18 03:10:17;;;;;;;0.10;0.10;;;;;;;7.11;82.64;100126.47;5100066;28;20040;-63
2022/10/18 03:12:43;;;;;;;0.10;0.10;;;;;;;7.23;82.63;100157.97;5099336;28;20036;-63
2022/10/18 03:15:09;;;;;;;0.10;0.10;;;;;;;7.18;82.58;100151.59;5092665;28;20055;-63
2022/10/18 03:17:35;;;;;;;0.10;0.10;;;;;;;7.02;82.86;100129.56;5084606;28;20040;-63
2022/10/18 03:20:01;;;;;;;0.10;0.10;;;;;;;7.15;82.97;100127.63;5084869;28;20404;-64
2022/10/18 03:22:27;;;;;;;0.10;0.10;;;;;;;7.15;83.00;100131.16;5081687;28;20051;-63
2022/10/18 03:24:55;;;;;;;0.13;0.13;;;;;;;7.13;83.02;100130.56;5080587;28;20055;-63
2022/10/18 03:27:21;;;;;;;0.13;0.13;;;;;;;7.11;83.09;100131.91;5082244;28;20062;-63
2022/10/18 03:29:47;;;;;;;0.20;0.20;;;;;;;7.08;83.15;100123.16;5084752;28;20071;-62
2022/10/18 03:32:13;;;;;;;0.10;0.10;;;;;;;7.05;83.31;100120.09;5084722;28;20562;-65
2022/10/18 03:34:39;;;;;;;0.10;0.10;;;;;;;7.00;83.66;100111.84;5092022;28;20068;-63
2022/10/18 03:37:04;;;;;;;0.10;0.10;;;;;;;6.93;83.78;100111.97;5086770;28;20052;-63
2022/10/18 03:39:30;;;;;;;0.10;0.10;;;;;;;6.88;84.04;100112.72;5090634;28;20052;-63
2022/10/18 03:41:58;;;;;;;0.10;0.10;;;;;;;6.85;84.43;100101.50;5087761;28;20055;-63
2022/10/18 03:44:24;;;;;;;0.10;0.10;;;;;;;6.82;84.57;100100.09;5090822;28;20048;-63
2022/10/18 03:46:50;;;;;;;0.10;0.10;;;;;;;6.78;84.65;100091.59;5088518;28;20048;-63
2022/10/18 03:49:16;;;;;;;0.10;0.10;;;;;;;6.78;84.72;100094.31;5086406;28;20050;-63
2022/10/18 03:51:42;;;;;;;0.10;0.10;;;;;;;6.76;85.00;100087.47;5085280;28;20040;-63
2022/10/18 03:54:08;;;;;;;0.10;0.10;;;;;;;6.76;84.83;100092.91;5070401;28;20052;-63
2022/10/18 03:56:34;;;;;;;0.10;0.10;;;;;;;6.77;84.93;100087.22;5087828;28;20040;-63
2022/10/18 03:59:03;;;;;;;0.10;0.10;;;;;;;6.77;84.98;100059.25;5087410;28;20570;-63
2022/10/18 04:01:29;;;;;;;0.10;0.10;;;;;;;6.76;84.96;100052.16;5087567;28;20092;-63
2022/10/18 04:03:55;;;;;;;0.10;0.10;;;;;;;6.77;85.15;100062.75;5098538;28;20151;-66
2022/10/18 04:06:21;;;;;;;0.10;0.10;;;;;;;6.80;85.05;100065.03;5091794;28;20461;-64
2022/10/18 04:08:47;;;;;;;0.10;0.10;;;;;;;6.85;85.07;100058.03;5087011;28;20052;-64
2022/10/18 04:11:13;;;;;;;0.10;0.10;;;;;;;6.88;84.79;100057.53;5085343;28;20391;-65
2022/10/18 04:13:39;;;;;;;0.10;0.10;;;;;;;6.92;84.92;100054.09;5085375;28;20135;-64
2022/10/18 04:16:07;;;;;;;0.10;0.10;;;;;;;6.93;84.64;100053.00;5087974;28;20130;-65
2022/10/18 04:18:33;;;;;;;0.10;0.10;;;;;;;6.94;84.54;100051.09;5087101;28;20077;-65
2022/10/18 04:20:59;;;;;;;0.10;0.10;;;;;;;6.93;84.26;100058.44;5089567;28;20139;-64
2022/10/18 04:23:25;;;;;;;0.10;0.10;;;;;;;6.92;84.45;100055.97;5092907;28;20086;-65
2022/10/18 04:25:51;;;;;;;0.10;0.10;;;;;;;6.89;84.52;100054.56;5105729;28;20139;-64
2022/10/18 04:28:17;;;;;;;0.25;0.20;;;;;;;6.90;84.69;100044.50;5103245;28;20325;-64
2022/10/18 04:30:47;;;;;;;0.20;0.20;;;;;;;6.88;84.82;100031.19;5101101;28;20126;-63
2022/10/18 04:33:15;;;;;;;0.13;0.13;;;;;;;6.92;84.72;100036.94;5090396;28;20048;-63
2022/10/18 04:35:40;;;;;;;0.10;0.10;;;;;;;6.77;84.61;100010.31;5087452;28;20041;-63
2022/10/18 04:38:06;;;;;;;0.10;0.10;;;;;;;6.89;84.64;100034.72;5085096;28;20040;-63
2022/10/18 04:40:32;;;;;;;0.20;0.20;;;;;;;6.89;84.79;100032.84;5097150;28;20080;-63
2022/10/18 04:42:58;;;;;;;0.10;0.10;;;;;;;6.90;84.82;100018.16;5092542;28;20039;-64
2022/10/18 04:45:24;;;;;;;0.10;0.10;;;;;;;6.92;84.72;100039.66;5089846;28;20051;-65
2022/10/18 04:47:50;;;;;;;0.13;0.10;;;;;;;6.90;84.74;100017.34;5090145;28;20067;-65
2022/10/18 04:50:18;;;;;;;0.10;0.10;;;;;;;6.90;84.72;100018.16;5101124;28;20061;-65
2022/10/18 04:52:44;;;;;;;0.10;0.10;;;;;;;6.92;84.71;100020.63;5107393;28;20541;-65
2022/10/18 04:55:10;;;;;;;0.88;0.20;;;;;;;6.98;84.65;100010.66;5104852;28;20044;-65
2022/10/18 04:57:36;;;;;;;0.10;0.10;;;;;;;7.02;84.63;100009.94;5094840;28;20516;-65
2022/10/18 05:00:03;;;;;;;0.10;0.10;;;;;;;7.05;84.70;100004.00;5098456;28;20054;-65
2022/10/18 05:02:29;;;;;;;0.10;0.10;;;;;;;7.08;84.36;100008.94;5105806;28;20484;-65
2022/10/18 05:04:55;;;;;;;0.10;0.10;;;;;;;7.12;84.50;100003.84;5077365;28;20512;-64
2022/10/18 05:07:23;;;;;;;0.10;0.10;;;;;;;7.14;84.29;99988.09;5088290;28;20048;-65
2022/10/18 05:09:49;;;;;;;0.10;0.10;;;;;;;7.17;84.33;99995.75;5083813;28;20067;-65
2022/10/18 05:12:15;;;;;;;0.10;0.10;;;;;;;7.21;84.19;99999.66;5090589;28;20075;-64
2022/10/18 05:14:41;;;;;;;0.15;0.15;;;;;;;7.08;84.11;99981.75;5066316;28;20075;-65
2022/10/18 05:17:07;;;;;;;0.10;0.10;;;;;;;7.16;84.01;100004.19;5084093;28;20070;-65
2022/10/18 05:19:33;;;;;;;0.10;0.10;;;;;;;6.88;84.20;99952.34;5096329;28;20562;-64
2022/10/18 05:21:59;;;;;;;0.10;0.10;;;;;;;7.10;84.30;99995.09;5095876;28;20120;-65
2022/10/18 05:24:27;;;;;;;0.10;0.10;;;;;;;7.09;84.59;100007.06;5086216;28;20036;-65
2022/10/18 05:26:53;;;;;;;0.10;0.10;;;;;;;7.11;84.47;100009.53;5083123;28;20070;-65
2022/10/18 05:29:19;;;;;;;0.10;0.10;;;;;;;7.08;84.52;100002.69;5067059;28;20047;-63
2022/10/18 05:31:44;;;;;;;0.10;0.10;;;;;;;7.10;84.62;100003.25;5094107;28;20039;-63
2022/10/18 05:34:10;;;;;;;0.13;0.13;;;;;;;7.01;84.58;99996.56;5082903;28;20048;-63
2022/10/18 05:36:36;;;;;;;0.10;0.10;;;;;;;7.10;84.63;100022.31;5084986;28;20074;-64
2022/10/18 05:39:03;;;;;;;0.10;0.10;;;;;;;7.07;84.81;100014.63;5089906;28;20101;-63
2022/10/18 05:41:31;;;;;;;0.10;0.10;;;;;;;6.99;84.92;99999.56;5094837;28;20121;-65
2022/10/18 05:43:57;;;;;;;0.10;0.10;;;;;;;7.13;84.63;100002.75;5061302;28;20530;-65
2022/10/18 05:46:23;;;;;;;0.10;0.10;;;;;;;7.18;84.72;100012.91;5097047;28;20043;-63
2022/10/18 05:48:50;;;;;;;0.10;0.10;;;;;;;7.17;84.51;100009.34;5089993;28;20052;-63
2022/10/18 05:51:16;;;;;;;0.45;0.10;;;;;;;7.12;84.35;100033.75;5084614;28;20040;-63
2022/10/18 05:53:42;;;;;;;0.20;0.10;;;;;;;7.11;84.64;100012.25;5085451;28;20138;-63
2022/10/18 05:56:10;;;;;;;0.10;0.10;;;;;;;7.12;84.81;100009.28;5083277;28;20051;-65
2022/10/18 05:58:38;;;;;;;0.10;0.10;;;;;;;7.15;84.64;100016.94;5086461;28;20040;-66
2022/10/18 06:01:05;;;;;;;0.10;0.10;;;;;;;7.20;84.61;99999.88;5097794;28;20054;-65
2022/10/18 06:03:32;;;;;;;0.10;0.10;;;;;;;7.20;84.70;99994.44;5094547;28;20047;-65
2022/10/18 06:05:59;;;;;;;0.20;0.20;;;;;;;7.22;84.44;99995.84;5086458;28;20378;-66
2022/10/18 06:08:25;;;;;;;0.10;0.10;;;;;;;7.17;84.55;99981.34;5086815;28;20052;-65
2022/10/18 06:10:51;;;;;;;0.10;0.10;;;;;;;7.17;84.60;99984.88;5089902;28;20101;-65
2022/10/18 06:13:17;;;;;;;0.10;0.10;;;;;;;7.18;84.69;99977.56;5103133;28;20536;-65
2022/10/18 06:15:44;;;;;;;0.10;0.10;;;;;;;7.21;84.65;99972.44;5107180;28;20051;-64
2022/10/18 06:18:10;;;;;;;0.10;0.10;;;;;;;7.23;84.63;99975.75;5105286;28;20054;-64
2022/10/18 06:20:36;;;;;;;0.10;0.10;;;;;;;7.24;84.68;99960.22;5104122;28;20044;-64
2022/10/18 06:23:03;;;;;;;0.10;0.10;;;;;;;7.26;84.58;99954.56;5106316;28;20052;-65
2022/10/18 06:25:29;;;;;;;0.10;0.10;;;;;;;7.27;84.58;99948.03;5106630;28;20043;-65
2022/10/18 06:27:55;;;;;;;0.10;0.10;;;;;;;7.32;84.66;99948.09;5105163;28;20460;-64
2022/10/18 06:30:21;;;;;;;0.10;0.10;;;;;;;7.30;84.48;99932.06;5104258;28;20048;-66
2022/10/18 06:32:48;;;;;;;0.10;0.10;;;;;;;7.32;84.58;99929.91;5095190;28;20507;-65
2022/10/18 06:35:15;;;;;;;0.10;0.10;;;;;;;7.32;84.62;99929.91;5102762;28;20511;-65
2022/10/18 06:37:41;;;;;;;0.10;0.10;;;;;;;7.33;84.83;99917.13;5101491;28;20036;-65
2022/10/18 06:40:08;;;;;;;0.10;0.10;;;;;;;7.31;84.88;99909.22;5093580;28;20138;-65
2022/10/18 06:42:34;;;;;;;0.10;0.10;;;;;;;7.32;85.32;99897.25;5086228;28;20081;-64
2022/10/18 06:45:00;;;;;;;0.10;0.10;;;;;;;7.36;85.35;99881.28;5102693;28;20058;-65
2022/10/18 06:47:26;;;;;;;0.10;0.10;;;;;;;7.40;85.49;99878.84;5103285;28;20462;-65
2022/10/18 06:49:53;;;;;;;0.10;0.10;;;;;;;7.40;85.78;99860.66;5077494;28;20369;-64
2022/10/18 06:52:24;;;;;;;0.10;0.10;;;;;;;7.41;86.35;99836.97;5085765;28;20371;-66
2022/10/18 06:54:51;;;;;;;0.10;0.10;;;;;;;7.40;87.21;99817.13;5095190;28;20079;-65
2022/10/18 06:57:18;;;;;;;0.40;0.25;;;;;;;7.32;88.13;99802.06;5095048;28;20044;-65
2022/10/18 06:59:44;;;;;;;0.10;0.10;;;;;;;7.24;88.80;99816.09;5100908;28;20043;-65
2022/10/18 07:02:14;;;;;;;0.10;0.10;;;;;;;7.18;89.38;99817.09;5104179;28;20061;-64
2022/10/18 07:04:40;;;;;;;0.10;0.10;;;;;;;7.14;89.88;99832.28;5102367;28;20043;-65
2022/10/18 07:07:08;;;;;;;0.10;0.10;;;;;;;6.93;90.42;99799.38;5088694;28;20269;-65
2022/10/18 07:09:34;;;;;;;0.20;0.20;;;;;;;7.11;91.16;99790.09;5078416;28;20035;-64
2022/10/18 07:12:01;;;;;;;0.10;0.10;;;;;;;7.11;91.78;99778.41;5108337;27;20134;-63
2022/10/18 07:14:28;;;;;;;0.20;0.20;;;;;;;7.08;92.08;99755.25;5103428;27;20134;-63
2022/10/18 07:16:53;;;;;;;0.10;0.10;;;;;;;7.07;92.90;99780.81;5107888;27;20139;-64
2022/10/18 07:19:20;;;;;;;0.10;0.10;;;;;;;7.06;93.36;99771.81;5108757;27;20071;-63
2022/10/18 07:21:46;;;;;;;0.10;0.10;;;;;;;6.99;93.56;99724.97;5098807;28;20184;-64
2022/10/18 07:24:13;;;;;;;0.10;0.10;;;;;;;6.89;93.56;99731.09;5104079;28;20485;-65
2022/10/18 07:26:41;;;;;;;0.10;0.10;;;;;;;6.83;93.98;99726.66;5097968;28;20055;-65
2022/10/18 07:29:07;;;;;;;;;;;;;;;6.84;94.37;99720.16;5102636;28;20488;-65
2022/10/18 07:31:35;;;;;;;0.10;0.10;;;;;;;6.86;94.28;99707.13;5102006;28;19969;-65
2022/10/18 07:34:03;;;;;;;0.10;0.10;;;;;;;6.87;93.97;99697.09;5094048;28;20138;-64
2022/10/18 07:36:29;;;;;;;0.13;0.13;;;;;;;6.89;93.96;99690.34;5096245;28;20130;-63
2022/10/18 07:38:55;;;;;;;0.10;0.10;;;;;;;6.91;93.66;99657.44;5102203;28;20134;-63
2022/10/18 07:41:23;;;;;;;0.10;0.10;;;;;;;6.94;93.63;99635.19;5106463;28;20110;-65
2022/10/18 07:43:50;;;;;;;0.20;0.20;;;;;;;6.99;93.57;99634.44;5094969;28;20055;-65
2022/10/18 07:46:17;;;;;;;0.10;0.10;;;;;;;7.11;93.47;99620.72;5074406;28;20567;-65
2022/10/18 07:48:43;;;;;;;0.10;0.10;;;;;;;7.16;93.40;99618.84;5092813;28;20063;-63
2022/10/18 07:51:10;;;;;;;0.17;0.17;;;;;;;7.18;93.01;99614.00;5096785;28;20047;-64
2022/10/18 07:53:36;;;;;;;0.10;0.10;;;;;;;7.19;92.49;99601.19;5106785;28;20502;-63
2022/10/18 07:56:05;;;;;;;0.10;0.10;;;;;;;7.17;92.28;99584.31;5108329;28;20173;-63
2022/10/18 07:58:33;;;;;;;0.10;0.10;;;;;;;7.20;92.29;99584.66;5105957;28;20051;-63
2022/10/18 08:01:02;;;;;;;0.10;0.10;;;;;;;7.16;92.13;99558.22;5088254;28;20048;-63
2022/10/18 08:03:28;;;;;;;0.28;0.17;;;;;;;7.14;92.36;99547.59;5098617;28;20091;-63
2022/10/18 08:05:54;;;;;;;0.20;0.20;;;;;;;7.13;92.55;99548.66;5096347;28;20059;-63
2022/10/18 08:08:21;;;;;;;0.13;0.13;;;;;;;7.12;92.65;99536.16;5111591;27;20047;-63
2022/10/18 08:10:47;;;;;;;0.10;0.10;;;;;;;7.09;92.72;99509.50;5111099;27;20044;-67
2022/10/18 08:13:15;;;;;;;0.10;0.10;;;;;;;7.07;93.08;99501.56;5111710;27;20052;-65
2022/10/18 08:15:42;;;;;;;0.10;0.10;;;;;;;7.09;93.37;99496.69;5097484;28;20047;-65
2022/10/18 08:18:09;;;;;;;0.10;0.10;;;;;;;7.14;93.10;99486.97;5103509;28;20082;-65
2022/10/18 08:20:35;;;;;;;0.10;0.10;;;;;;;7.12;93.28;99476.34;5094417;28;20561;-65
2022/10/18 08:23:02;;;;;;;0.10;0.10;;;;;;;7.17;92.96;99467.41;5097897;28;20047;-63
2022/10/18 08:25:28;;;;;;;0.20;0.20;;;;;;;7.22;93.12;99441.06;5106320;27;20097;-63
2022/10/18 08:27:54;;;;;;;0.10;0.10;;;;;;;7.23;93.51;99434.56;5100869;28;20066;-63
2022/10/18 08:30:22;;;;;;;0.40;0.10;;;;;;;7.23;94.18;99428.28;5099628;28;20047;-65
2022/10/18 08:32:49;;;;;;;0.10;0.10;;;;;;;7.21;94.68;99397.81;5095097;28;20042;-63
2022/10/18 08:35:15;;;;;;;0.13;0.13;;;;;;;7.22;94.97;99356.78;5101409;28;20566;-63
2022/10/18 08:37:42;;;;;;;0.10;0.10;;;;;;;7.10;95.26;99348.00;5096310;28;20089;-63
2022/10/18 08:40:11;;;;;;;0.10;0.10;;;;;;;7.03;95.56;99350.94;5100195;28;20415;-63
2022/10/18 08:42:49;;;;;;;0.20;0.20;;;;;;;7.02;96.00;99289.50;5098141;28;20052;-65
2022/10/18 08:45:15;;;;;;;0.10;0.10;;;;;;;7.00;96.12;99269.09;5097300;28;20175;-64
2022/10/18 08:47:43;;;;;;;0.10;0.10;;;;;;;6.89;96.62;99262.78;5099692;28;20060;-65
2022/10/18 08:50:15;;;;;;;0.10;0.10;;;;;;;6.86;97.17;99245.09;5105403;28;20054;-65
2022/10/18 08:52:47;;;;;;;0.10;0.10;;;;;;;6.88;97.65;99223.94;5105727;28;20051;-65
2022/10/18 08:55:20;;;;;;;0.20;0.20;;;;;;;6.83;98.22;99196.72;5100822;27;20533;-64
2022/10/18 08:57:47;;;;;;;0.10;0.10;;;;;;;6.73;98.66;99188.53;5099454;28;20135;-65
2022/10/18 09:00:15;;;;;;;0.20;0.20;;;;;;;6.68;99.16;99183.88;5098759;28;20048;-65
2022/10/18 09:03:02;;;;;;;0.10;0.10;;;;;;;6.67;99.52;99185.78;5107136;28;20044;-64
2022/10/18 09:05:42;;;;;;;0.10;0.10;;;;;;;6.69;100.00;99174.66;5100225;28;20044;-65
2022/10/18 09:08:34;;;;;;;0.20;0.20;;;;;;;6.69;100.00;99180.09;5096857;28;20044;-64
2022/10/18 09:11:15;;;;;;;0.20;0.20;;;;;;;6.71;100.00;99226.00;5098554;28;20645;-64
2022/10/18 09:14:19;;;;;;;0.20;0.20;;;;;;;6.76;100.00;99245.06;5100247;28;20533;-65
2022/10/18 09:16:53;;;;;;;0.10;0.10;;;;;;;6.78;100.00;99249.13;5088641;28;20079;-65
2022/10/18 09:19:33;;;;;;;0.10;0.10;;;;;;;6.80;100.00;99210.84;5086784;27;20143;-65
2022/10/18 09:22:08;;;;;;;0.20;0.20;;;;;;;6.78;100.00;99213.81;5098436;28;20120;-64
2022/10/18 09:24:38;;;;;;;0.10;0.10;;;;;;;6.81;100.00;99232.31;5106797;28;20047;-65
2022/10/18 09:27:13;;;;;;;0.10;0.10;;;;;;;6.88;100.00;99212.25;5108238;28;20089;-65
2022/10/18 09:29:54;;;;;;;0.10;0.10;;;;;;;6.98;100.00;99206.84;5105949;28;20150;-65
2022/10/18 09:32:28;;;;;;;0.10;0.10;;;;;;;6.99;100.00;99184.03;5108739;27;20058;-65
2022/10/18 09:34:57;;;;;;;0.10;0.10;;;;;;;7.00;100.00;99160.38;5106263;27;20513;-65
2022/10/18 09:37:28;;;;;;;0.10;0.10;;;;;;;6.99;100.00;99170.44;5095366;28;20434;-65
2022/10/18 09:40:03;;;;;;;0.10;0.10;;;;;;;6.98;100.00;99168.81;5097236;28;20136;-67
2022/10/18 09:42:35;;;;;;;0.10;0.10;;;;;;;7.10;100.00;99171.28;5103262;28;20101;-66
2022/10/18 09:45:05;;;;;;;0.10;0.10;;;;;;;7.21;100.00;99166.69;5102399;28;20514;-65
2022/10/18 09:47:36;;;;;;;0.10;0.10;;;;;;;7.32;100.00;99159.38;5097402;28;20048;-65
2022/10/18 09:50:14;;;;;;;0.10;0.10;;;;;;;7.34;100.00;99144.41;5084825;28;20040;-66
2022/10/18 09:52:48;;;;;;;0.10;0.10;;;;;;;7.31;100.00;99144.97;5104427;28;20048;-65
2022/10/18 09:55:20;;;;;;;0.10;0.10;;;;;;;7.36;100.00;99146.88;5103809;28;20466;-64
2022/10/18 09:57:51;;;;;;;0.10;0.10;;;;;;;7.43;100.00;99124.88;5102265;28;20040;-65
2022/10/18 10:00:21;;;;;;;0.15;0.15;;;;;;;7.47;100.00;99125.94;5099171;28;20055;-65
2022/10/18 10:02:47;;;;;;;0.15;0.15;;;;;;;7.55;100.00;99127.31;5101053;27;20628;-66
2022/10/18 10:05:14;;;;;;;0.10;0.10;;;;;;;7.60;100.00;99116.44;5096077;27;20075;-65
2022/10/18 10:07:46;;;;;;;0.10;0.10;;;;;;;7.68;100.00;99109.63;5099725;28;20589;-65
2022/10/18 10:10:17;;;;;;;0.10;0.10;;;;;;;7.73;100.00;99109.66;5105543;28;20134;-65
2022/10/18 10:12:44;;;;;;;0.10;0.10;;;;;;;7.78;100.00;99109.63;5099441;28;20070;-65
2022/10/18 10:15:19;;;;;;;0.10;0.10;;;;;;;7.84;100.00;99105.81;5097940;28;20322;-65
2022/10/18 10:17:54;;;;;;;0.10;0.10;;;;;;;7.89;100.00;99089.47;5102199;28;20134;-65
2022/10/18 10:20:22;;;;;;;0.10;0.10;;;;;;;7.93;100.00;99084.28;5098297;28;20048;-64
2022/10/18 10:22:51;;;;;;;0.10;0.10;;;;;;;7.99;100.00;99077.75;5100376;28;20075;-66
2022/10/18 10:25:25;;;;;;;0.10;0.10;;;;;;;8.06;100.00;99086.44;5102677;28;20097;-65
2022/10/18 10:27:51;;;;;;;0.10;0.10;;;;;;;8.13;100.00;99077.19;5106989;28;20051;-65
2022/10/18 10:30:24;;;;;;;0.10;0.10;;;;;;;8.18;100.00;99069.00;5103817;28;20048;-65
2022/10/18 10:32:51;;;;;;;0.10;0.10;;;;;;;8.25;100.00;99065.97;5118249;28;20055;-66
2022/10/18 10:35:22;;;;;;;0.20;0.20;;;;;;;8.31;100.00;99059.41;5119433;27;20054;-65
2022/10/18 10:37:52;;;;;;;0.10;0.10;;;;;;;8.36;100.00;99059.41;5102423;28;20541;-64
2022/10/18 10:40:20;;;;;;;0.10;0.10;;;;;;;8.40;100.00;99052.31;5104004;28;20056;-65
2022/10/18 10:43:00;;;;;;;0.10;0.10;;;;;;;8.46;100.00;99045.72;5103466;28;20048;-65
2022/10/18 10:45:28;;;;;;;0.10;0.10;;;;;;;8.45;100.00;99046.03;5110092;28;20050;-65
2022/10/18 10:48:01;;;;;;;0.10;0.10;;;;;;;8.54;100.00;99035.41;5129978;27;20092;-65
2022/10/18 10:50:29;;;;;;;0.10;0.10;;;;;;;8.59;100.00;99027.19;5131712;27;20096;-65
2022/10/18 10:52:57;;;;;;;0.10;0.10;;;;;;;8.71;100.00;99027.66;5109143;27;20052;-64
2022/10/18 10:55:27;;;;;;;0.10;0.10;;;;;;;8.76;100.00;99038.53;5099523;28;20051;-65
2022/10/18 10:57:55;;;;;;;0.10;0.10;;;;;;;8.83;100.00;99023.81;5107865;27;20885;-65
2022/10/18 11:00:36;;;;;;;0.10;0.10;;;;;;;8.91;100.00;99023.19;5108610;28;20048;-64
2022/10/18 11:03:05;;;;;;;0.17;0.17;;;;;;;9.02;100.00;99015.75;5109330;27;20513;-64
2022/10/18 11:05:42;;;;;;;0.10;0.10;;;;;;;9.12;100.00;99018.41;5117236;27;20089;-65
2022/10/18 11:08:10;;;;;;;0.10;0.10;;;;;;;9.22;100.00;99004.69;5105595;28;20059;-64
2022/10/18 11:10:49;;;;;;;0.10;0.10;;;;;;;9.40;100.00;98996.91;5090090;28;20050;-64
2022/10/18 11:13:26;;;;;;;0.10;0.10;;;;;;;9.60;100.00;98986.91;5128187;27;20082;-64
2022/10/18 11:15:59;;;;;;;0.10;0.10;;;;;;;9.77;100.00;98986.47;5115483;27;20127;-66
2022/10/18 11:18:30;;;;;;;0.40;0.13;;;;;;;9.95;100.00;98970.44;5080128;28;20460;-65
2022/10/18 11:21:06;;;;;;;0.10;0.10;;;;;;;10.11;100.00;98984.69;5099418;28;20063;-64
2022/10/18 11:23:36;;;;;;;0.50;0.10;;;;;;;10.14;100.00;98995.88;5097250;28;20050;-65
2022/10/18 11:26:29;;;;;;;0.10;0.10;;;;;;;10.19;100.00;98998.53;5104949;28;20059;-65
2022/10/18 11:29:29;;;;;;;0.10;0.10;;;;;;;10.31;100.00;99000.03;5099485;27;20545;-65
2022/10/18 11:32:09;;;;;;;0.25;0.10;;;;;;;10.38;100.00;98978.66;5102814;28;20125;-65
2022/10/18 11:34:49;;;;;;;0.10;0.10;;;;;;;10.46;100.00;99007.28;5096783;27;20059;-65
2022/10/18 11:37:29;;;;;;;0.10;0.10;;;;;;;10.52;99.86;98997.06;5106024;28;20124;-65
2022/10/18 11:40:07;;;;;;;0.10;0.10;;;;;;;10.56;99.81;98989.91;5094153;28;20047;-65
2022/10/18 11:42:37;;;;;;;;;;;;;;;10.61;99.52;98982.47;5103107;28;20048;-65
2022/10/18 11:45:17;;;;;;;0.10;0.10;;;;;;;10.65;99.28;99001.81;5098201;28;20029;-66
2022/10/18 11:47:50;;;;;;;0.10;0.10;;;;;;;10.61;98.74;98978.91;5104840;28;20050;-66